Time;durP1;ratioP1;P1;durP2;ratioP2;P2;SDS_P1;SDS_P2;PMS_P1;PMS_P2;Temp;Humidity;BMP_temperature;BMP_pressure;BME280_temperature;BME280_humidity;BME280_pressure;Samples;Min_cycle;Max_cycle;Signal;HPM_P1;HPM_P2
2022/09/27 00:01:18;;;;;;;7.93;1.05;;;12.40;84.80;;;;;;9180404;19;20021;-69
2022/09/27 00:04:22;;;;;;;;;;;12.40;84.80;;;;;;9180829;19;20083;-70
2022/09/27 00:07:27;;;;;;;8.57;2.03;;;12.40;84.80;;;;;;9179409;19;19927;-69
2022/09/27 00:10:32;;;;;;;17.27;1.55;;;12.40;84.70;;;;;;9176224;19;20011;-69
2022/09/27 00:13:36;;;;;;;2.13;0.95;;;12.40;84.80;;;;;;9175865;19;20389;-69
2022/09/27 00:16:41;;;;;;;7.00;1.48;;;12.40;84.80;;;;;;9179838;19;20018;-69
2022/09/27 00:19:45;;;;;;;13.20;1.40;;;12.30;84.80;;;;;;9179710;19;20028;-69
2022/09/27 00:22:51;;;;;;;4.70;1.50;;;12.30;84.80;;;;;;9177739;19;20007;-69
2022/09/27 00:25:58;;;;;;;5.78;1.40;;;12.30;84.80;;;;;;9177343;19;20062;-69
2022/09/27 00:29:01;;;;;;;6.60;1.00;;;12.30;84.90;;;;;;9178877;19;20082;-68
2022/09/27 00:32:05;;;;;;;6.78;1.20;;;12.30;84.80;;;;;;9177675;19;20019;-68
2022/09/27 00:35:09;;;;;;;28.85;3.63;;;12.30;84.90;;;;;;9178534;19;20018;-68
2022/09/27 00:38:15;;;;;;;9.00;1.60;;;12.20;84.80;;;;;;9178270;19;20034;-69
2022/09/27 00:41:21;;;;;;;6.05;1.40;;;12.20;84.80;;;;;;9178909;19;20041;-68
2022/09/27 00:44:55;;;;;;;8.30;1.48;;;12.20;84.80;;;;;;9178925;19;20364;-70
2022/09/27 00:48:02;;;;;;;5.93;1.40;;;12.20;84.90;;;;;;9178712;19;20018;-68
2022/09/27 00:51:08;;;;;;;4.70;0.90;;;12.20;84.80;;;;;;9177806;19;20825;-69
2022/09/27 00:54:18;;;;;;;6.15;1.08;;;12.20;84.80;;;;;;9173028;19;20030;-68
2022/09/27 00:57:23;;;;;;;8.55;1.70;;;12.10;84.80;;;;;;9173834;19;20019;-69
2022/09/27 01:00:27;;;;;;;5.82;1.50;;;12.10;84.80;;;;;;9179713;19;20017;-68
2022/09/27 01:03:38;;;;;;;5.78;1.48;;;12.10;84.80;;;;;;9185196;19;20011;-69
2022/09/27 01:06:42;;;;;;;7.85;1.30;;;12.10;84.90;;;;;;9185954;19;20022;-69
2022/09/27 01:09:49;;;;;;;4.10;1.02;;;12.00;84.80;;;;;;9184417;19;20386;-69
2022/09/27 01:13:05;;;;;;;6.13;1.77;;;12.00;84.80;;;;;;9184082;19;20014;-69
2022/09/27 01:16:16;;;;;;;6.78;1.15;;;12.00;84.90;;;;;;9184094;19;20511;-69
2022/09/27 01:19:51;;;;;;;3.25;1.23;;;12.00;84.90;;;;;;9185621;19;20022;-69
2022/09/27 01:23:13;;;;;;;1.92;0.93;;;11.90;85.00;;;;;;9185721;19;20018;-69
2022/09/27 01:26:32;;;;;;;4.97;0.82;;;11.90;84.90;;;;;;9183891;19;20013;-69
2022/09/27 01:29:50;;;;;;;7.43;1.23;;;11.90;84.90;;;;;;9183600;19;20810;-70
2022/09/27 01:33:08;;;;;;;7.32;1.00;;;11.90;85.00;;;;;;9183334;19;20046;-69
2022/09/27 01:36:28;;;;;;;10.95;1.25;;;11.90;85.00;;;;;;9185569;19;20017;-69
2022/09/27 01:39:45;;;;;;;3.65;0.70;;;11.80;85.00;;;;;;9183566;19;20036;-71
2022/09/27 01:43:24;;;;;;;3.35;0.80;;;11.80;85.00;;;;;;9180784;19;20011;-72
2022/09/27 01:46:31;;;;;;;7.05;0.82;;;11.80;84.90;;;;;;9184829;19;20010;-69
2022/09/27 01:49:59;;;;;;;1.15;0.63;;;11.80;84.90;;;;;;9182038;19;20022;-68
2022/09/27 01:53:07;;;;;;;1.55;0.60;;;11.80;85.00;;;;;;9180190;19;20021;-69
2022/09/27 01:56:26;;;;;;;3.72;0.73;;;11.70;84.90;;;;;;9178138;19;20019;-70
2022/09/27 01:59:39;;;;;;;3.22;0.65;;;11.70;84.90;;;;;;9182789;19;20018;-70
2022/09/27 02:03:08;;;;;;;7.65;1.05;;;11.70;85.00;;;;;;9182508;19;20044;-70
2022/09/27 02:06:17;;;;;;;2.58;0.70;;;11.70;85.00;;;;;;9184120;19;20010;-68
2022/09/27 02:09:39;;;;;;;4.85;1.02;;;11.70;85.00;;;;;;9181460;19;20022;-70
2022/09/27 02:13:02;;;;;;;5.05;0.80;;;11.60;85.60;;;;;;9181348;19;20027;-68
2022/09/27 02:16:20;;;;;;;3.55;0.75;;;11.60;85.00;;;;;;9182732;19;20023;-69
2022/09/27 02:19:35;;;;;;;4.95;0.70;;;11.60;85.00;;;;;;9183860;19;20090;-70
2022/09/27 02:22:46;;;;;;;3.20;0.50;;;11.60;85.00;;;;;;9182087;19;20345;-68
2022/09/27 02:25:55;;;;;;;2.72;0.63;;;11.60;85.00;;;;;;9181740;19;20382;-67
2022/09/27 02:29:05;;;;;;;3.58;0.75;;;11.60;85.00;;;;;;9181958;19;20023;-69
2022/09/27 02:32:16;;;;;;;4.13;0.80;;;11.60;85.10;;;;;;9180559;19;20014;-70
2022/09/27 02:35:25;;;;;;;5.70;0.73;;;11.50;85.10;;;;;;9180835;19;20018;-69
2022/09/27 02:38:31;;;;;;;4.38;1.00;;;11.50;85.00;;;;;;9181199;19;20014;-67
2022/09/27 02:41:36;;;;;;;2.88;0.95;;;11.50;85.10;;;;;;9181081;19;20022;-68
2022/09/27 02:44:40;;;;;;;2.35;0.80;;;11.50;85.00;;;;;;9181226;19;20022;-68
2022/09/27 02:47:58;;;;;;;2.58;0.80;;;11.50;85.00;;;;;;9180800;19;20089;-67
2022/09/27 02:51:13;;;;;;;5.35;0.90;;;11.50;85.00;;;;;;9181281;19;20010;-69
2022/09/27 02:54:26;;;;;;;10.52;0.60;;;11.40;85.00;;;;;;9181160;19;20011;-67
2022/09/27 02:58:03;;;;;;;7.43;1.00;;;11.50;85.10;;;;;;9176085;19;20015;-67
2022/09/27 03:01:38;;;;;;;3.50;0.70;;;11.40;85.00;;;;;;9180285;19;20349;-68
2022/09/27 03:05:02;;;;;;;2.13;0.70;;;11.40;85.00;;;;;;9180597;19;20098;-69
2022/09/27 03:08:07;;;;;;;5.55;1.20;;;11.40;85.00;;;;;;9179851;19;20085;-69
2022/09/27 03:11:13;;;;;;;6.60;0.75;;;11.40;85.00;;;;;;9180681;19;20078;-69
2022/09/27 03:14:17;;;;;;;7.70;0.90;;;11.30;85.00;;;;;;9180152;19;20030;-69
2022/09/27 03:17:32;;;;;;;9.55;0.80;;;11.30;85.00;;;;;;9179524;19;20018;-69
2022/09/27 03:20:58;;;;;;;4.90;0.80;;;11.30;85.00;;;;;;9181064;19;20094;-69
2022/09/27 03:24:02;;;;;;;3.75;0.93;;;11.20;85.00;;;;;;9179184;19;20081;-69
2022/09/27 03:27:09;;;;;;;2.63;0.73;;;11.20;85.10;;;;;;9179488;19;20104;-68
2022/09/27 03:30:15;;;;;;;3.45;0.85;;;11.20;85.10;;;;;;9179474;19;20019;-67
2022/09/27 03:33:18;;;;;;;2.03;0.45;;;11.20;85.10;;;;;;9177421;19;20021;-68
2022/09/27 03:36:33;;;;;;;5.00;0.80;;;11.20;85.10;;;;;;9179373;19;20044;-68
2022/09/27 03:39:37;;;;;;;5.28;0.75;;;11.10;85.10;;;;;;9179779;19;20014;-68
2022/09/27 03:42:43;;;;;;;1.95;0.60;;;11.10;85.10;;;;;;9175665;19;20015;-69
2022/09/27 03:45:53;;;;;;;2.05;0.73;;;11.10;85.10;;;;;;9181480;19;20379;-68
2022/09/27 03:48:57;;;;;;;1.45;0.70;;;11.10;85.10;;;;;;9181298;19;20006;-69
2022/09/27 03:52:00;;;;;;;3.45;0.70;;;11.00;85.00;;;;;;9180099;19;20014;-68
2022/09/27 03:55:05;;;;;;;3.03;0.63;;;11.10;85.10;;;;;;9178645;19;20026;-67
2022/09/27 03:58:10;;;;;;;4.78;0.95;;;11.00;85.00;;;;;;9176130;19;20010;-70
2022/09/27 04:01:15;;;;;;;2.45;0.68;;;11.00;85.00;;;;;;9178961;19;20028;-66
2022/09/27 04:04:20;;;;;;;0.63;0.60;;;11.00;85.00;;;;;;9178832;19;20015;-68
2022/09/27 04:07:24;;;;;;;3.05;0.77;;;10.90;85.00;;;;;;9178612;19;20018;-67
2022/09/27 04:10:28;;;;;;;;;;;10.90;85.00;;;;;;9177273;19;20014;-67
2022/09/27 04:13:34;;;;;;;2.97;0.55;;;10.90;85.00;;;;;;9177225;19;20341;-67
2022/09/27 04:16:37;;;;;;;1.13;0.43;;;10.90;84.90;;;;;;9180039;19;20375;-68
2022/09/27 04:20:03;;;;;;;5.22;1.02;;;10.80;84.90;;;;;;9177253;19;20011;-67
2022/09/27 04:23:07;;;;;;;2.45;0.57;;;10.80;85.00;;;;;;9177674;19;20014;-68
2022/09/27 04:26:14;;;;;;;7.18;1.52;;;10.80;85.10;;;;;;9177723;19;20018;-67
2022/09/27 04:29:27;;;;;;;3.05;0.65;;;10.80;85.10;;;;;;9176614;19;20022;-68
2022/09/27 04:32:31;;;;;;;2.22;0.60;;;10.70;85.10;;;;;;9175549;19;20017;-68
2022/09/27 04:39:17;;;;;;;6.65;0.90;;;10.70;85.10;;;;;;9182722;19;20014;-67
2022/09/27 04:42:21;;;;;;;2.33;0.55;;;10.70;85.10;;;;;;9184695;19;20010;-69
2022/09/27 04:45:27;;;;;;;3.05;0.85;;;10.70;85.20;;;;;;9184886;19;20018;-68
2022/09/27 04:48:31;;;;;;;1.83;0.47;;;10.60;85.10;;;;;;9185542;19;20026;-67
2022/09/27 04:51:34;;;;;;;6.80;0.93;;;10.70;85.10;;;;;;9186149;19;20117;-69
2022/09/27 04:54:39;;;;;;;3.03;0.85;;;10.70;85.20;;;;;;9185920;19;20502;-69
2022/09/27 04:57:52;;;;;;;2.47;0.70;;;10.70;85.20;;;;;;9180094;19;20025;-67
2022/09/27 05:00:57;;;;;;;5.55;0.70;;;10.60;85.10;;;;;;9183693;19;20106;-67
2022/09/27 05:04:36;;;;;;;6.43;0.68;;;10.60;85.10;;;;;;9180919;19;20011;-68
2022/09/27 05:07:42;;;;;;;7.55;2.15;;;10.60;85.20;;;;;;9183785;19;20022;-68
2022/09/27 05:10:51;;;;;;;4.97;0.77;;;10.60;85.10;;;;;;9183955;19;20383;-67
2022/09/27 05:13:56;;;;;;;5.35;1.13;;;10.60;85.20;;;;;;9181868;19;20015;-68
2022/09/27 05:17:03;;;;;;;5.75;0.75;;;10.60;85.20;;;;;;9183448;19;20017;-68
2022/09/27 05:20:08;;;;;;;6.07;1.20;;;10.60;85.30;;;;;;9185909;19;20014;-68
2022/09/27 05:23:19;;;;;;;5.90;0.70;;;10.60;85.20;;;;;;9184035;19;20011;-68
2022/09/27 05:26:23;;;;;;;2.63;0.85;;;10.60;85.30;;;;;;9183646;19;20006;-68
2022/09/27 05:29:27;;;;;;;4.47;0.75;;;10.60;85.30;;;;;;9184405;19;20039;-68
2022/09/27 05:32:48;;;;;;;2.38;0.75;;;10.60;85.30;;;;;;9182052;19;20014;-68
2022/09/27 05:36:11;;;;;;;11.75;0.90;;;10.50;85.20;;;;;;9185294;19;20122;-67
2022/09/27 05:39:15;;;;;;;7.20;0.95;;;10.50;85.20;;;;;;9184990;19;20347;-67
2022/09/27 05:42:20;;;;;;;5.57;1.30;;;10.50;85.30;;;;;;9184953;19;20018;-68
2022/09/27 05:45:25;;;;;;;12.77;1.33;;;10.50;85.30;;;;;;9183351;19;20018;-68
2022/09/27 05:48:33;;;;;;;2.88;0.82;;;10.40;85.20;;;;;;9183055;19;20011;-69
2022/09/27 05:51:42;;;;;;;8.20;1.02;;;10.50;85.30;;;;;;9181135;19;20074;-69
2022/09/27 05:54:47;;;;;;;4.38;1.08;;;10.40;85.30;;;;;;9183049;19;20366;-69
2022/09/27 05:57:56;;;;;;;2.60;1.20;;;10.40;85.40;;;;;;9178185;19;20025;-69
2022/09/27 06:01:08;;;;;;;9.60;1.50;;;10.40;85.40;;;;;;9182033;19;20023;-69
2022/09/27 06:04:34;;;;;;;7.40;2.60;;;10.40;85.40;;;;;;9182170;19;20046;-68
2022/09/27 06:08:02;;;;;;;3.92;1.00;;;10.40;85.40;;;;;;9182808;19;20018;-68
2022/09/27 06:11:14;;;;;;;5.22;1.35;;;10.40;85.40;;;;;;9183364;19;20014;-68
2022/09/27 06:14:18;;;;;;;10.93;1.30;;;10.40;85.40;;;;;;9172158;19;20026;-69
2022/09/27 06:17:42;;;;;;;8.80;1.15;;;10.40;85.50;;;;;;9173694;19;20018;-72
2022/09/27 06:20:53;;;;;;;10.73;1.15;;;10.40;85.50;;;;;;9173072;19;20026;-73
2022/09/27 06:23:58;;;;;;;2.15;0.88;;;10.40;85.50;;;;;;9173566;19;20018;-73
2022/09/27 06:27:09;;;;;;;8.48;1.33;;;10.40;85.50;;;;;;9172595;19;21439;-73
2022/09/27 06:30:43;;;;;;;14.95;1.63;;;10.40;86.20;;;;;;9172496;19;20014;-73
2022/09/27 06:33:57;;;;;;;3.92;1.23;;;10.40;85.50;;;;;;9171923;19;20026;-73
2022/09/27 06:37:03;;;;;;;4.90;1.00;;;10.40;85.60;;;;;;9181193;19;20408;-74
2022/09/27 06:40:09;;;;;;;4.78;1.40;;;10.40;85.60;;;;;;9180658;19;20019;-73
2022/09/27 06:43:35;;;;;;;9.63;1.17;;;10.50;85.70;;;;;;9180270;19;20034;-72
2022/09/27 06:46:57;;;;;;;5.50;1.15;;;10.50;85.70;;;;;;9181148;19;20066;-73
2022/09/27 06:50:21;;;;;;;7.07;1.30;;;10.50;85.80;;;;;;9177431;19;20019;-70
2022/09/27 06:53:28;;;;;;;5.75;1.40;;;10.50;85.70;;;;;;9175226;19;20022;-70
2022/09/27 06:56:32;;;;;;;12.27;1.80;;;10.50;85.70;;;;;;9168865;19;20018;-69
2022/09/27 07:03:38;;;;;;;3.83;1.05;;;10.60;85.80;;;;;;9175534;19;20034;-69
2022/09/27 07:06:55;;;;;;;4.45;0.85;;;10.60;85.70;;;;;;9172774;19;20018;-70
2022/09/27 07:10:09;;;;;;;4.00;0.90;;;10.60;85.70;;;;;;9172107;19;20029;-70
2022/09/27 07:13:14;;;;;;;3.78;1.00;;;10.60;85.70;;;;;;9171233;19;20086;-72
2022/09/27 07:16:17;;;;;;;;;;;10.60;85.70;;;;;;9182822;19;20014;-72
2022/09/27 07:19:21;;;;;;;8.90;1.50;;;10.70;85.70;;;;;;9174282;19;19927;-71
2022/09/27 07:22:26;;;;;;;4.88;0.80;;;10.70;85.60;;;;;;9175064;19;20018;-70
2022/09/27 07:25:37;;;;;;;5.57;1.30;;;10.70;85.70;;;;;;9175393;19;20022;-72
2022/09/27 07:28:43;;;;;;;9.52;1.23;;;10.70;85.70;;;;;;9174400;19;20018;-71
2022/09/27 07:31:51;;;;;;;6.93;1.65;;;10.80;85.80;;;;;;9173258;19;20030;-71
2022/09/27 07:34:54;;;;;;;;;;;10.80;85.80;;;;;;9173577;19;20015;-70
2022/09/27 07:37:59;;;;;;;2.95;1.40;;;10.80;85.80;;;;;;9171972;19;19963;-71
2022/09/27 07:41:09;;;;;;;9.15;1.55;;;10.90;85.70;;;;;;9173567;19;20018;-72
2022/09/27 07:44:15;;;;;;;8.23;1.33;;;10.90;85.70;;;;;;9172679;19;20576;-70
2022/09/27 07:47:36;;;;;;;6.65;3.65;;;10.90;85.70;;;;;;9169980;19;20464;-72
2022/09/27 07:50:54;;;;;;;6.13;1.52;;;11.00;85.70;;;;;;9175223;19;20340;-72
2022/09/27 07:54:16;;;;;;;7.88;2.17;;;11.00;85.70;;;;;;9172002;19;20014;-70
2022/09/27 07:57:33;;;;;;;6.18;1.40;;;11.10;85.80;;;;;;9167285;19;20019;-72
2022/09/27 08:00:39;;;;;;;9.73;1.20;;;11.10;85.80;;;;;;9169565;19;20033;-72
2022/09/27 08:03:46;;;;;;;14.90;2.25;;;11.20;85.70;;;;;;9171350;19;20030;-72
2022/09/27 08:06:50;;;;;;;8.23;1.30;;;11.20;85.80;;;;;;9170798;19;20491;-72
2022/09/27 08:09:54;;;;;;;;;;;11.30;85.80;;;;;;9166838;19;20151;-72
2022/09/27 08:13:02;;;;;;;4.70;1.27;;;11.40;85.80;;;;;;9166566;19;19914;-71
2022/09/27 08:16:07;;;;;;;7.97;1.10;;;11.40;86.30;;;;;;9171205;19;20019;-70
2022/09/27 08:19:30;;;;;;;6.15;1.10;;;11.50;85.70;;;;;;9176006;19;20045;-70
2022/09/27 08:22:53;;;;;;;4.72;1.40;;;11.60;85.60;;;;;;9172050;19;20023;-69
2022/09/27 08:26:08;;;;;;;3.20;0.98;;;11.60;85.60;;;;;;9170759;19;20014;-70
2022/09/27 08:29:26;;;;;;;9.30;1.38;;;11.70;85.70;;;;;;9171221;19;20018;-70
2022/09/27 08:32:31;;;;;;;6.68;1.50;;;11.80;85.70;;;;;;9171105;19;20784;-70
2022/09/27 08:35:37;;;;;;;6.30;1.33;;;11.80;85.70;;;;;;9171493;19;20011;-70
2022/09/27 08:38:42;;;;;;;11.35;1.48;;;12.00;85.80;;;;;;9170690;19;20011;-70
2022/09/27 08:41:53;;;;;;;9.20;1.58;;;12.10;85.90;;;;;;9170738;19;20034;-68
2022/09/27 08:45:09;;;;;;;8.02;1.30;;;12.20;85.90;;;;;;9170923;19;20090;-69
2022/09/27 08:48:13;;;;;;;7.55;1.50;;;12.30;85.80;;;;;;9171342;19;20015;-69
2022/09/27 08:51:22;;;;;;;7.60;1.15;;;12.40;86.30;;;;;;9172342;19;20022;-71
2022/09/27 08:54:31;;;;;;;1.95;0.90;;;12.60;86.30;;;;;;9167794;19;20362;-72
2022/09/27 08:57:36;;;;;;;3.22;1.00;;;12.70;85.60;;;;;;9168691;19;20038;-69
2022/09/27 09:00:42;;;;;;;4.57;1.40;;;12.80;85.40;;;;;;9168915;19;20313;-71
2022/09/27 09:03:51;;;;;;;3.38;0.90;;;12.90;85.30;;;;;;9168676;19;20015;-71
2022/09/27 09:07:03;;;;;;;7.38;1.08;;;13.00;85.20;;;;;;9172932;19;20014;-71
2022/09/27 09:14:06;;;;;;;6.47;2.17;;;13.20;84.90;;;;;;9173841;19;20470;-69
2022/09/27 09:17:29;;;;;;;7.10;1.00;;;13.30;84.90;;;;;;9175760;19;20006;-74
2022/09/27 09:20:59;;;;;;;1.70;0.70;;;13.40;84.80;;;;;;9168335;19;20019;-71
2022/09/27 09:24:28;;;;;;;6.05;2.00;;;13.50;84.70;;;;;;9171793;19;20019;-70
2022/09/27 09:27:39;;;;;;;5.13;1.00;;;13.50;84.30;;;;;;9176327;19;20042;-69
2022/09/27 09:30:53;;;;;;;4.40;1.20;;;13.60;84.20;;;;;;9177915;19;20074;-69
2022/09/27 09:34:04;;;;;;;6.00;0.93;;;13.60;84.00;;;;;;9173557;19;20021;-70
2022/09/27 09:37:13;;;;;;;4.07;0.90;;;13.70;84.10;;;;;;9172362;19;20018;-69
2022/09/27 09:40:23;;;;;;;7.30;1.00;;;13.70;84.00;;;;;;9179412;19;20014;-67
2022/09/27 09:43:32;;;;;;;5.57;0.77;;;13.80;84.00;;;;;;9176357;19;20018;-70
2022/09/27 09:46:41;;;;;;;3.25;0.70;;;13.80;83.90;;;;;;9179027;19;20463;-70
2022/09/27 09:49:55;;;;;;;1.38;0.80;;;13.80;83.80;;;;;;9176968;19;20015;-71
2022/09/27 09:53:06;;;;;;;4.90;0.90;;;13.90;83.60;;;;;;9173108;19;20203;-68
2022/09/27 09:56:18;;;;;;;4.57;0.73;;;13.90;83.50;;;;;;9178805;19;20018;-69
2022/09/27 09:59:27;;;;;;;2.05;0.70;;;13.90;83.50;;;;;;9176136;19;20029;-69
2022/09/27 10:02:35;;;;;;;3.35;0.65;;;14.00;83.50;;;;;;9177121;19;20493;-69
2022/09/27 10:05:48;;;;;;;2.38;0.52;;;14.00;83.60;;;;;;9174127;19;20054;-69
2022/09/27 10:08:53;;;;;;;3.58;0.43;;;14.00;83.50;;;;;;9173885;19;20014;-71
2022/09/27 10:12:06;;;;;;;2.38;0.43;;;14.00;83.40;;;;;;9175905;19;20386;-70
2022/09/27 10:15:17;;;;;;;0.90;0.30;;;13.90;83.30;;;;;;9172725;19;20053;-69
2022/09/27 10:18:21;;;;;;;2.55;1.00;;;13.90;83.30;;;;;;9168837;19;20584;-69
2022/09/27 10:21:30;;;;;;;4.82;0.90;;;13.90;83.30;;;;;;9167723;19;20026;-69
2022/09/27 10:24:55;;;;;;;1.70;0.60;;;13.80;83.30;;;;;;9168132;19;20033;-69
2022/09/27 10:28:31;;;;;;;0.88;0.45;;;13.80;83.50;;;;;;9171869;19;20026;-70
2022/09/27 10:31:40;;;;;;;4.93;0.70;;;13.80;83.60;;;;;;9168900;19;20531;-69
2022/09/27 10:34:50;;;;;;;3.83;0.50;;;13.80;83.70;;;;;;9168632;19;20102;-69
2022/09/27 10:38:12;;;;;;;0.90;0.25;;;13.80;83.70;;;;;;9171576;19;20025;-70
2022/09/27 10:41:22;;;;;;;0.98;0.47;;;13.90;83.70;;;;;;9167310;19;20022;-72
2022/09/27 10:44:29;;;;;;;2.83;0.40;;;13.90;83.70;;;;;;9167923;19;20646;-69
2022/09/27 10:47:46;;;;;;;2.30;0.50;;;13.90;83.80;;;;;;9167055;19;20026;-70
2022/09/27 10:51:02;;;;;;;3.88;0.90;;;14.00;84.00;;;;;;9164511;19;20027;-66
2022/09/27 10:54:26;;;;;;;4.90;0.70;;;14.10;84.00;;;;;;9164671;19;20014;-68
2022/09/27 10:57:32;;;;;;;2.38;0.75;;;14.20;83.90;;;;;;9166298;19;20021;-70
2022/09/27 11:00:38;;;;;;;3.08;0.73;;;14.30;83.80;;;;;;9164959;19;20990;-70
2022/09/27 11:03:48;;;;;;;2.25;0.60;;;14.30;83.60;;;;;;9164345;19;21465;-68
2022/09/27 11:06:52;;;;;;;9.43;0.90;;;14.40;83.50;;;;;;9166689;19;20034;-70
2022/09/27 11:10:01;;;;;;;1.92;0.98;;;14.40;83.40;;;;;;9163864;19;20022;-69
2022/09/27 11:13:09;;;;;;;1.13;0.80;;;14.50;83.40;;;;;;9167523;19;20018;-70
2022/09/27 11:16:27;;;;;;;1.75;0.55;;;14.60;83.40;;;;;;9168593;19;21964;-69
2022/09/27 11:19:51;;;;;;;2.33;0.60;;;14.60;83.20;;;;;;9167664;19;20390;-69
2022/09/27 11:23:17;;;;;;;3.65;0.63;;;14.60;83.00;;;;;;9172847;19;20134;-68
2022/09/27 11:26:45;;;;;;;4.00;1.58;;;14.70;83.00;;;;;;9168829;19;20017;-68
2022/09/27 11:30:03;;;;;;;0.90;0.50;;;14.70;82.80;;;;;;9174001;19;20014;-67
2022/09/27 11:33:50;;;;;;;1.27;0.60;;;14.70;82.60;;;;;;9165661;19;20022;-68
2022/09/27 11:37:13;;;;;;;1.83;0.68;;;14.70;82.50;;;;;;9164975;19;20014;-69
2022/09/27 11:40:28;;;;;;;2.95;0.70;;;14.70;82.50;;;;;;9172990;19;20020;-69
2022/09/27 11:44:03;;;;;;;1.65;0.40;;;14.60;82.50;;;;;;9168881;19;20057;-69
2022/09/27 11:47:14;;;;;;;;;;;14.60;82.20;;;;;;9173733;19;20037;-70
2022/09/27 11:50:35;;;;;;;0.28;0.20;;;14.50;82.10;;;;;;9170838;19;19938;-70
2022/09/27 11:54:05;;;;;;;0.63;0.40;;;14.50;82.10;;;;;;9172497;19;20018;-70
2022/09/27 11:57:22;;;;;;;1.85;0.40;;;14.30;81.90;;;;;;9168502;19;20041;-69
2022/09/27 12:00:39;;;;;;;0.20;0.20;;;14.30;82.00;;;;;;9172330;19;20471;-70
2022/09/27 12:04:22;;;;;;;2.60;0.28;;;14.20;81.80;;;;;;9176333;19;20018;-68
2022/09/27 12:07:35;;;;;;;0.95;0.40;;;14.00;81.70;;;;;;9173537;19;20010;-69
2022/09/27 12:10:42;;;;;;;4.78;0.43;;;13.90;81.80;;;;;;9175247;19;20031;-68
2022/09/27 12:13:53;;;;;;;1.17;0.40;;;13.80;81.80;;;;;;9172221;19;20023;-69
2022/09/27 12:17:00;;;;;;;1.85;0.35;;;13.80;82.10;;;;;;9176974;19;20014;-69
2022/09/27 12:20:11;;;;;;;4.80;2.15;;;13.70;81.90;;;;;;9174039;19;20074;-67
2022/09/27 12:23:23;;;;;;;3.13;0.68;;;13.60;82.00;;;;;;9173245;19;20015;-70
2022/09/27 12:26:40;;;;;;;4.07;0.82;;;13.50;82.10;;;;;;9173021;19;20014;-69
2022/09/27 12:29:47;;;;;;;1.63;0.60;;;13.50;82.20;;;;;;9174253;19;20019;-70
2022/09/27 12:33:01;;;;;;;4.30;0.80;;;13.40;82.20;;;;;;9172658;19;20024;-68
2022/09/27 12:36:10;;;;;;;0.70;0.43;;;13.30;82.30;;;;;;9170730;19;20022;-68
2022/09/27 12:39:20;;;;;;;1.65;0.77;;;13.30;82.40;;;;;;9174083;19;20014;-69
2022/09/27 12:42:33;;;;;;;3.38;0.68;;;13.30;82.50;;;;;;9176175;19;20444;-68
2022/09/27 12:45:51;;;;;;;3.50;0.93;;;13.30;82.60;;;;;;9174533;19;20015;-69
2022/09/27 12:49:04;;;;;;;7.55;1.52;;;13.30;82.60;;;;;;9175697;19;20050;-69
2022/09/27 12:52:13;;;;;;;5.55;0.95;;;13.30;82.90;;;;;;9173016;19;20483;-68
2022/09/27 12:55:40;;;;;;;1.38;0.57;;;13.40;82.90;;;;;;9172019;19;20021;-68
2022/09/27 12:59:19;;;;;;;1.92;0.68;;;13.40;83.00;;;;;;9181710;19;20014;-69
2022/09/27 13:03:01;;;;;;;4.18;0.80;;;13.40;83.10;;;;;;9183239;19;20026;-68
2022/09/27 13:06:58;;;;;;;1.15;0.50;;;13.50;83.10;;;;;;9180094;19;20018;-71
2022/09/27 13:10:34;;;;;;;4.25;0.63;;;13.60;82.90;;;;;;9179373;19;20018;-68
2022/09/27 13:13:44;;;;;;;8.55;0.75;;;13.60;82.70;;;;;;9181335;19;20010;-67
2022/09/27 13:16:50;;;;;;;2.58;0.50;;;13.70;82.70;;;;;;9175598;19;20018;-69
2022/09/27 13:19:56;;;;;;;3.17;0.68;;;13.70;82.60;;;;;;9181002;19;20428;-70
2022/09/27 13:23:03;;;;;;;5.38;0.98;;;13.70;82.50;;;;;;9179781;19;20029;-70
2022/09/27 13:26:25;;;;;;;1.45;0.50;;;13.80;82.40;;;;;;9182546;19;20026;-70
2022/09/27 13:29:34;;;;;;;2.30;0.60;;;13.80;82.20;;;;;;9181459;19;20353;-69
2022/09/27 13:33:32;;;;;;;2.00;0.40;;;13.80;82.10;;;;;;9180186;19;20014;-69
2022/09/27 13:36:38;;;;;;;1.13;0.50;;;13.80;81.80;;;;;;9180972;19;20025;-69
2022/09/27 13:39:48;;;;;;;2.80;0.50;;;13.80;81.80;;;;;;9179405;19;20021;-71
2022/09/27 13:43:40;;;;;;;3.10;0.65;;;13.80;81.70;;;;;;9181612;19;20026;-71
2022/09/27 13:47:24;;;;;;;3.05;0.38;;;13.80;81.60;;;;;;9183045;19;20056;-69
2022/09/27 13:50:34;;;;;;;3.25;0.80;;;13.80;81.60;;;;;;9179089;19;20783;-69
2022/09/27 13:53:45;;;;;;;0.95;0.60;;;13.80;81.60;;;;;;9181505;19;20010;-70
2022/09/27 13:56:55;;;;;;;0.73;0.40;;;13.80;81.70;;;;;;9178778;19;20022;-69
2022/09/27 14:00:05;;;;;;;2.28;0.60;;;13.80;81.60;;;;;;9181180;19;20018;-69
2022/09/27 14:03:31;;;;;;;2.08;0.80;;;13.80;81.50;;;;;;9182449;19;20019;-69
2022/09/27 14:06:45;;;;;;;2.78;0.63;;;13.80;81.50;;;;;;9174689;19;20015;-71
2022/09/27 14:09:53;;;;;;;2.35;0.90;;;13.80;81.50;;;;;;9179847;19;20007;-71
2022/09/27 14:13:06;;;;;;;5.40;0.80;;;13.80;81.50;;;;;;9181478;19;20059;-70
2022/09/27 14:16:20;;;;;;;1.88;0.65;;;13.80;81.40;;;;;;9183954;19;20044;-70
2022/09/27 14:19:26;;;;;;;0.68;0.47;;;13.80;81.40;;;;;;9181453;19;20014;-69
2022/09/27 14:22:30;;;;;;;4.60;0.70;;;13.80;81.30;;;;;;9182352;19;20011;-69
2022/09/27 14:25:47;;;;;;;4.47;0.98;;;13.70;81.20;;;;;;9181766;19;20023;-70
2022/09/27 14:28:53;;;;;;;1.63;0.90;;;13.70;81.20;;;;;;9181583;19;20022;-68
2022/09/27 14:32:12;;;;;;;2.28;0.98;;;13.70;81.20;;;;;;9181793;19;20027;-69
2022/09/27 14:38:43;;;;;;;1.88;0.57;;;13.60;81.10;;;;;;9178346;19;20104;-66
2022/09/27 14:41:56;;;;;;;3.55;0.68;;;13.60;81.10;;;;;;9176222;19;20022;-69
2022/09/27 14:45:07;;;;;;;1.95;0.60;;;13.60;81.10;;;;;;9180283;19;20035;-71
2022/09/27 14:48:21;;;;;;;1.15;0.40;;;13.60;81.00;;;;;;9180670;19;20018;-70
2022/09/27 14:51:29;;;;;;;5.43;1.02;;;13.50;80.80;;;;;;9179905;19;20047;-68
2022/09/27 14:54:33;;;;;;;4.78;0.75;;;13.60;80.90;;;;;;9176196;19;20028;-69
2022/09/27 14:57:38;;;;;;;2.13;0.60;;;13.50;80.80;;;;;;9171020;19;20022;-69
2022/09/27 15:00:48;;;;;;;2.42;0.55;;;13.50;80.80;;;;;;9179371;19;20371;-69
2022/09/27 15:03:52;;;;;;;1.58;0.47;;;13.40;80.60;;;;;;9178332;19;20018;-69
2022/09/27 15:06:57;;;;;;;4.10;0.60;;;13.40;80.60;;;;;;9179650;19;20015;-70
2022/09/27 15:10:00;;;;;;;2.20;0.55;;;13.40;80.60;;;;;;9175304;19;20471;-67
2022/09/27 15:13:06;;;;;;;3.28;1.05;;;13.40;80.60;;;;;;9179908;19;20011;-71
2022/09/27 15:16:16;;;;;;;0.57;0.50;;;13.40;80.40;;;;;;9179386;19;20370;-70
2022/09/27 15:19:25;;;;;;;2.65;1.00;;;13.30;80.30;;;;;;9177167;19;20049;-70
2022/09/27 15:22:36;;;;;;;3.65;1.20;;;13.30;80.30;;;;;;9178445;19;20384;-68
2022/09/27 15:25:44;;;;;;;1.08;0.70;;;13.30;80.40;;;;;;9174486;19;20030;-69
2022/09/27 15:28:51;;;;;;;2.20;0.50;;;13.30;80.40;;;;;;9174890;19;20549;-68
2022/09/27 15:32:05;;;;;;;3.25;0.90;;;13.30;80.40;;;;;;9172892;19;20105;-70
2022/09/27 15:35:09;;;;;;;;;;;13.30;80.30;;;;;;9171696;19;20023;-68
2022/09/27 15:38:26;;;;;;;2.67;0.50;;;13.30;80.40;;;;;;9171188;19;19982;-70
2022/09/27 15:42:05;;;;;;;2.30;0.90;;;13.30;81.00;;;;;;9171769;19;20018;-69
2022/09/27 15:45:29;;;;;;;2.25;0.75;;;13.30;80.30;;;;;;9175691;19;20015;-70
2022/09/27 15:48:36;;;;;;;1.25;0.70;;;13.20;80.10;;;;;;9179013;19;20014;-66
2022/09/27 15:51:41;;;;;;;3.58;1.52;;;13.20;80.20;;;;;;9179359;19;20086;-69
2022/09/27 15:54:44;;;;;;;2.85;0.95;;;13.20;80.20;;;;;;9175221;19;20018;-69
2022/09/27 15:57:51;;;;;;;2.08;0.75;;;13.20;80.20;;;;;;9175979;19;20421;-69
2022/09/27 16:00:56;;;;;;;30.98;1.70;;;13.20;80.20;;;;;;9178184;19;20019;-69
2022/09/27 16:04:02;;;;;;;0.73;0.40;;;13.20;80.10;;;;;;9172387;19;20029;-70
2022/09/27 16:07:08;;;;;;;1.02;0.52;;;13.20;80.00;;;;;;9163832;19;20022;-69
2022/09/27 16:10:15;;;;;;;2.25;0.70;;;13.10;79.90;;;;;;9168139;19;20417;-70
2022/09/27 16:13:19;;;;;;;4.68;0.68;;;13.10;79.80;;;;;;9170354;19;20114;-68
2022/09/27 16:16:23;;;;;;;0.98;0.50;;;13.10;79.80;;;;;;9171410;19;20019;-69
2022/09/27 16:19:29;;;;;;;2.35;0.40;;;13.00;79.80;;;;;;9170291;19;20022;-68
2022/09/27 16:22:32;;;;;;;3.55;0.80;;;13.00;79.70;;;;;;9170330;19;20048;-67
2022/09/27 16:25:36;;;;;;;0.70;0.40;;;13.00;79.70;;;;;;9170268;19;20438;-70
2022/09/27 16:28:40;;;;;;;1.85;0.57;;;13.00;79.80;;;;;;9169638;19;20023;-69
2022/09/27 16:31:44;;;;;;;3.00;1.10;;;12.90;79.80;;;;;;9175508;19;20021;-70
2022/09/27 16:34:50;;;;;;;2.33;0.85;;;12.90;79.70;;;;;;9176533;19;20764;-70
2022/09/27 16:37:54;;;;;;;2.97;1.65;;;12.90;79.80;;;;;;9178841;19;20120;-70
2022/09/27 16:41:02;;;;;;;1.90;0.80;;;12.80;79.70;;;;;;9177547;19;20414;-69
2022/09/27 16:44:10;;;;;;;1.90;0.80;;;12.80;79.60;;;;;;9175038;19;20014;-70
2022/09/27 16:47:14;;;;;;;0.98;0.80;;;12.80;79.60;;;;;;9177869;19;20018;-68
2022/09/27 16:53:36;;;;;;;0.60;0.60;;;12.70;79.60;;;;;;9177112;19;20023;-69
2022/09/27 16:56:40;;;;;;;0.50;0.40;;;12.70;79.60;;;;;;9171791;19;20024;-69
2022/09/27 16:59:45;;;;;;;1.10;0.60;;;12.70;79.60;;;;;;9176208;19;20043;-69